M I D A S
Marine Information and Data Acquisition System
Tripno 1884 of the Zeeleeuw from 2010-05-18 07:04:42 to 2010-05-18 13:57:27
Back to CruiseResearch ActivitiesStationsMapUnderway DataData graphs

EquipmentUnitsComment
TimeDGPSUTC
LatitudeDGPSDM.mWGS84
LongitudeDGPSDM.mWGS84
TemperatureSBE03/SBE38deg celciusITS90
ConductivitySBE21S/mITS90
SalinitySBE21 Practical Salinity Units
ChlorophylAChelsea fluorimeterg/lCalibrated in Aceton
Missing or incorrect values are displayed as -999
Sea surface data collected by the RV Zeeleeuw from 2010-05-18 07:07:35 to 2010-05-18 14:02:46
Time Latitude Longitude Temperature Conductivity Salinity ChlorophylA
2010-05-18 07:08:43 51°13.676 2°55.901 19.479 0.063706 0.346345 -0.861272
2010-05-18 07:09:44 51°13.693 2°55.812 19.5027 0.063706 0.346395 -0.861272
2010-05-18 07:10:42 51°13.699 2°55.742 19.5081 0.063706 0.346484 -0.861272
2010-05-18 07:11:41 51°13.708 2°55.738 19.5229 0.063602 0.345967 -0.896096
2010-05-18 07:12:40 51°13.735 2°55.735 19.5778 0.063706 0.346639 -0.861272
2010-05-18 07:13:40 51°13.809 2°55.661 19.2085 0.063602 0.346122 -0.861272
2010-05-18 07:14:40 51°13.935 2°55.553 19.2497 0.063602 0.346249 -0.861272
2010-05-18 07:15:40 51°14.065 2°55.444 19.3742 0.063602 0.346338 -0.896096
2010-05-18 07:16:40 51°14.205 2°55.331 19.3275 0.063602 0.346427 -0.861272
2010-05-18 07:17:40 51°14.367 2°55.172 19.1465 0.063602 0.346499 -0.826448
2010-05-18 07:18:40 51°14.553 2°55.008 19.2709 0.063602 0.346583 -0.861272
2010-05-18 07:19:40 51°14.726 2°54.781 19.1271 0.063602 0.346516 -0.861272
2010-05-18 07:20:40 51°14.917 2°54.602 19.1137 0.063602 0.346755 -0.861272
2010-05-18 07:21:40 51°15.1 2°54.402 19.1292 0.063602 0.346749 -0.861272
2010-05-18 07:22:40 51°15.283 2°54.19 19.072 0.063498 0.346259 -0.896096
2010-05-18 07:26:30 51°15.962 2°53.299 19.1059 0.063498 0.346515 -0.861272
2010-05-18 07:27:30 51°16.155 2°53.113 19.0785 0.063498 0.346571 -0.861272
2010-05-18 07:28:30 51°16.363 2°52.973 19.0853 0.063498 0.34666 -0.861272
2010-05-18 07:29:30 51°16.575 2°52.849 19.0999 0.063498 0.346705 -0.861272
2010-05-18 07:30:30 51°16.787 2°52.725 19.1032 0.063498 0.346794 -0.826448
2010-05-18 07:31:30 51°16.997 2°52.599 19.1017 0.063498 0.346861 -0.826448
2010-05-18 07:32:30 51°17.209 2°52.472 19.1142 0.063498 0.346928 -0.826448
2010-05-18 07:33:30 51°17.422 2°52.345 19.1285 0.063394 0.346409 -0.826448
2010-05-18 07:34:30 51°17.635 2°52.219 19.1391 0.063394 0.34647 -0.791624
2010-05-18 07:35:30 51°17.848 2°52.092 19.1438 0.063394 0.346548 -0.861272
2010-05-18 07:36:30 51°18.06 2°51.964 19.6223 0.063394 0.346627 -0.826448
2010-05-18 07:37:30 51°18.271 2°51.829 19.4185 0.063394 0.346699 -0.826448
2010-05-18 07:38:30 51°18.483 2°51.693 19.4406 0.063394 0.346766 -0.826448
2010-05-18 07:39:30 51°18.693 2°51.553 19.4611 0.063394 0.346839 -0.861272
2010-05-18 07:40:30 51°18.903 2°51.414 19.4796 0.063394 0.346906 -0.826448
2010-05-18 07:41:30 51°19.113 2°51.277 19.069 0.063394 0.34699 -0.861272
2010-05-18 07:42:30 51°19.322 2°51.143 17.1687 0.063394 0.347063 -0.826448
2010-05-18 07:43:30 51°19.531 2°51.009 17.4715 0.063394 0.347119 -0.826448
2010-05-18 07:44:30 51°19.74 2°50.874 17.5822 0.06329 0.346599 -0.826448
2010-05-18 07:45:30 51°19.95 2°50.737 18.0068 0.06329 0.346655 -0.861272
2010-05-18 07:46:30 51°20.162 2°50.597 17.8481 0.06329 0.346744 -0.861272
2010-05-18 07:47:30 51°20.373 2°50.457 18.0426 0.06329 0.346795 -0.861272
2010-05-18 07:48:30 51°20.583 2°50.32 18.1097 0.06329 0.346868 -0.826448
2010-05-18 07:49:30 51°20.8 2°50.235 18.0081 0.06329 0.346935 -0.826448
2010-05-18 07:50:30 51°21.02 2°50.165 18.3336 0.06329 0.347002 -0.826448
2010-05-18 07:51:30 51°21.237 2°50.212 18.155 0.06329 0.347075 -0.826448
2010-05-18 07:52:30 51°21.447 2°50.306 18.2562 0.06329 0.347148 -0.826448
2010-05-18 07:53:30 51°21.66 2°50.391 18.2771 0.06329 0.34721 -0.826448
2010-05-18 07:54:30 51°21.875 2°50.471 18.3451 0.06329 0.347272 -0.826448
2010-05-18 07:55:30 51°22.095 2°50.506 18.3147 0.063185 0.346762 -0.861272
2010-05-18 07:56:30 51°22.32 2°50.452 18.4795 0.063185 0.34683 -0.861272
2010-05-18 07:57:30 51°22.539 2°50.338 18.4739 0.063185 0.346858 -0.826448
2010-05-18 07:58:30 51°22.747 2°50.178 18.474 0.063186 0.346953 -0.861272
2010-05-18 07:59:30 51°22.949 2°50.002 18.4939 0.063186 0.347009 -0.861272
2010-05-18 08:00:30 51°23.15 2°49.832 18.514 0.063186 0.347083 -0.826448
2010-05-18 08:01:30 51°23.354 2°49.664 18.6084 0.063186 0.347133 -0.826448
2010-05-18 08:02:30 51°23.558 2°49.499 18.5525 0.063186 0.347195 -0.861272
2010-05-18 08:03:30 51°23.762 2°49.332 18.6446 0.063186 0.347251 -0.826448
2010-05-18 08:04:30 51°23.966 2°49.166 18.6321 0.063186 0.347325 -0.861272
2010-05-18 08:05:30 51°24.17 2°48.999 18.6428 0.063186 0.347398 -0.826448
2010-05-18 08:06:30 51°24.374 2°48.833 18.6479 0.063081 0.346882 -0.861272
2010-05-18 08:07:30 51°24.578 2°48.665 18.6638 0.063081 0.346949 -0.861272
2010-05-18 08:08:30 51°24.784 2°48.499 18.7 0.063081 0.347011 -0.861272
2010-05-18 08:09:30 51°24.99 2°48.335 18.8537 0.063081 0.347096 -0.861272
2010-05-18 08:10:30 51°25.212 2°48.276 18.7613 0.063081 0.347163 -0.826448
2010-05-18 08:11:30 51°25.436 2°48.251 18.763 0.063081 0.347237 -0.826448
2010-05-18 08:12:30 51°25.66 2°48.217 18.7983 0.063081 0.34731 -0.861272
2010-05-18 08:13:30 51°25.883 2°48.178 18.8013 0.063081 0.347372 -0.861272
2010-05-18 08:14:30 51°26.105 2°48.138 18.8635 0.063081 0.347452 -0.826448
2010-05-18 08:15:30 51°26.328 2°48.097 18.8836 0.063081 0.347525 -0.861272
2010-05-18 08:16:30 51°26.553 2°48.058 18.879 0.063081 0.347593 -0.826448
2010-05-18 08:17:30 51°26.776 2°48.021 18.9144 0.062977 0.347064 -0.861272
2010-05-18 08:18:30 51°27.001 2°47.986 18.9232 0.063081 0.347746 -0.896096
2010-05-18 08:19:30 51°27.225 2°47.954 18.9368 0.062977 0.347223 -0.861272
2010-05-18 08:20:30 51°27.45 2°47.921 18.9577 0.062977 0.347302 -0.861272
2010-05-18 08:21:30 51°27.672 2°47.88 18.9677 0.062977 0.34737 -0.826448
2010-05-18 08:22:30 51°27.893 2°47.843 18.9917 0.062977 0.347438 -0.861272
2010-05-18 08:23:30 51°28.114 2°47.807 18.9911 0.062977 0.347511 -0.861272
2010-05-18 08:24:30 51°28.337 2°47.771 19.027 0.062977 0.347568 -0.896096
2010-05-18 08:25:30 51°28.56 2°47.736 19.0269 0.062977 0.347636 -0.861272
2010-05-18 08:26:46 51°28.842 2°47.691 19.0475 0.062977 0.347727 -0.861272
2010-05-18 08:29:58 51°29.554 2°47.583 19.0811 0.062873 0.347339 -0.861272
2010-05-18 08:30:58 51°29.776 2°47.541 19.1126 0.062873 0.347401 -0.861272
2010-05-18 08:31:58 51°29.999 2°47.5 19.1335 0.062873 0.34747 -0.861272
2010-05-18 08:32:58 51°30.219 2°47.455 19.1471 0.062873 0.347532 -0.861272
2010-05-18 08:33:58 51°30.436 2°47.41 19.1581 0.062873 0.347595 -0.826448
2010-05-18 08:34:58 51°30.651 2°47.365 19.1694 0.062873 0.347663 -0.861272
2010-05-18 08:35:58 51°30.868 2°47.32 19.1797 0.062873 0.347714 -0.826448
2010-05-18 08:36:58 51°31.084 2°47.276 19.1873 0.062873 0.347782 -0.861272
2010-05-18 08:37:58 51°31.301 2°47.232 19.2014 0.062873 0.347834 -0.826448
2010-05-18 08:38:58 51°31.517 2°47.182 19.214 0.062873 0.347902 -0.826448
2010-05-18 08:39:58 51°31.731 2°47.127 19.2238 0.062873 0.347947 -0.861272
2010-05-18 08:40:58 51°31.947 2°47.074 19.2354 0.062769 0.347422 -0.861272
2010-05-18 08:41:58 51°32.163 2°47.019 19.2473 0.062873 0.348067 -0.826448
2010-05-18 08:42:58 51°32.379 2°46.965 19.2599 0.062769 0.347536 -0.861272
2010-05-18 08:43:58 51°32.596 2°46.911 19.2708 0.062769 0.347593 -0.826448
2010-05-18 08:44:58 51°32.812 2°46.861 19.2808 0.062769 0.347644 -0.826448
2010-05-18 08:45:58 51°33.027 2°46.814 19.2915 0.062769 0.34769 -0.861272
2010-05-18 08:46:58 51°33.241 2°46.766 19.3013 0.062769 0.347753 -0.896096
2010-05-18 08:47:58 51°33.456 2°46.717 19.3122 0.062769 0.347804 -0.861272
2010-05-18 08:48:58 51°33.671 2°46.667 19.3216 0.062769 0.34785 -0.826448
2010-05-18 08:49:58 51°33.886 2°46.619 19.3317 0.062769 0.347907 -0.861272
2010-05-18 08:50:58 51°34.101 2°46.57 19.3426 0.062769 0.347964 -0.861272
2010-05-18 08:51:58 51°34.317 2°46.52 19.3557 0.062769 0.34801 -0.826448
2010-05-18 08:52:58 51°34.534 2°46.47 19.3638 0.062769 0.348067 -0.861272
2010-05-18 08:53:58 51°34.751 2°46.424 19.376 0.062769 0.348118 -0.861272
2010-05-18 08:54:58 51°34.968 2°46.377 19.3765 0.062769 0.348158 -0.861272
2010-05-18 08:55:58 51°35.183 2°46.331 19.3953 0.062769 0.348215 -0.861272
2010-05-18 08:56:58 51°35.398 2°46.282 19.4038 0.062769 0.348267 -0.791624
2010-05-18 08:57:58 51°35.615 2°46.229 19.4142 0.062769 0.348313 -0.826448
2010-05-18 08:58:58 51°35.833 2°46.171 19.4254 0.062769 0.348353 -0.826448
2010-05-18 08:59:58 51°36.052 2°46.112 19.4294 0.062769 0.348404 -0.861272
2010-05-18 09:00:58 51°36.258 2°46.062 19.4412 0.062769 0.348456 -0.791624
2010-05-18 09:01:58 51°36.443 2°46.017 19.4507 0.062769 0.348519 -0.826448
2010-05-18 09:02:58 51°36.602 2°45.973 19.4648 0.062769 0.348553 -0.861272
2010-05-18 09:03:58 51°36.75 2°45.966 19.4654 0.062769 0.348605 -0.861272
2010-05-18 09:04:58 51°36.871 2°46.106 19.4804 0.062769 0.348668 -0.861272
2010-05-18 09:05:58 51°36.966 2°46.284 19.4938 0.062769 0.348714 -0.861272
2010-05-18 09:06:58 51°37.026 2°46.395 19.5118 0.062769 0.348754 -0.861272
2010-05-18 09:07:58 51°37.089 2°46.445 19.5125 0.062769 0.3488 -0.861272
2010-05-18 09:08:58 51°37.167 2°46.475 19.5237 0.062769 0.348835 -0.826448
2010-05-18 09:09:58 51°37.281 2°46.529 19.5221 0.062769 0.348886 -0.826448
2010-05-18 09:10:58 51°37.423 2°46.6 19.5326 0.062769 0.348932 -0.826448
2010-05-18 09:11:58 51°37.573 2°46.681 19.5292 0.062769 0.348955 -0.861272
2010-05-18 09:12:58 51°37.747 2°46.816 19.5422 0.062769 0.349007 -0.826448
2010-05-18 09:13:58 51°37.927 2°46.954 19.5439 0.062769 0.349047 -0.861272
2010-05-18 09:14:58 51°38.111 2°47.081 19.5545 0.062769 0.349094 -0.861272
2010-05-18 09:15:58 51°38.298 2°47.198 19.5593 0.062769 0.349134 -0.861272
2010-05-18 09:16:58 51°38.484 2°47.315 19.5659 0.062769 0.349186 -0.861272
2010-05-18 09:17:58 51°38.668 2°47.437 19.5858 0.062769 0.34922 -0.826448
2010-05-18 09:18:58 51°38.852 2°47.554 19.5953 0.062769 0.349255 -0.826448
2010-05-18 09:19:58 51°39.036 2°47.671 19.5972 0.062769 0.349312 -0.861272
2010-05-18 09:20:58 51°39.222 2°47.772 19.6028 0.062769 0.349359 -0.826448
2010-05-18 09:21:58 51°39.408 2°47.881 19.628 0.062769 0.349387 -0.826448
2010-05-18 09:22:58 51°39.597 2°47.979 19.6164 0.062769 0.349445 -0.861272
2010-05-18 09:23:58 51°39.783 2°48.081 19.6336 0.062769 0.34948 -0.861272
2010-05-18 09:24:58 51°39.97 2°48.186 19.6461 0.062769 0.349532 -0.826448
2010-05-18 09:25:58 51°40.155 2°48.304 19.6553 0.062769 0.349578 -0.826448
2010-05-18 09:26:58 51°40.343 2°48.411 19.6479 0.062769 0.349624 -0.861272
2010-05-18 09:27:58 51°40.528 2°48.527 19.6649 0.062874 0.350268 -0.896096
2010-05-18 09:28:58 51°40.715 2°48.633 19.6683 0.062874 0.350303 -0.826448
2010-05-18 09:30:14 51°40.947 2°48.791 19.6981 0.062769 0.349769 -0.826448
2010-05-18 09:31:33 51°41.196 2°48.941 19.7014 0.062874 0.350436 -0.861272
2010-05-18 09:32:57 51°41.469 2°49.092 19.7069 0.062874 0.350482 -0.826448
2010-05-18 09:33:57 51°41.655 2°49.229 19.7065 0.062769 0.349931 -0.861272
2010-05-18 09:34:57 51°41.83 2°49.399 19.725 0.062874 0.350587 -0.861272
2010-05-18 09:35:57 51°42.027 2°49.473 19.7257 0.062874 0.350656 -0.826448
2010-05-18 09:36:57 51°42.22 2°49.329 19.7243 0.062769 0.350081 -0.826448
2010-05-18 09:37:57 51°42.398 2°49.119 19.734 0.062769 0.350133 -0.826448
2010-05-18 09:38:57 51°42.492 2°48.792 19.7294 0.062769 0.350168 -0.826448
2010-05-18 09:39:57 51°42.447 2°48.42 19.7282 0.062769 0.350243 -0.826448
2010-05-18 09:40:57 51°42.295 2°48.113 19.7422 0.062769 0.350278 -0.861272
2010-05-18 09:41:57 51°42.085 2°47.904 19.7485 0.062769 0.350301 -0.861272
2010-05-18 09:42:57 51°41.86 2°47.737 19.7577 0.062769 0.350354 -0.861272
2010-05-18 09:43:57 51°41.638 2°47.56 19.7691 0.062769 0.350412 -0.826448
2010-05-18 09:44:57 51°41.412 2°47.395 19.779 0.06277 0.350499 -0.861272
2010-05-18 09:45:57 51°41.179 2°47.265 19.7822 0.06277 0.350551 -0.861272
2010-05-18 09:46:57 51°40.947 2°47.131 19.7992 0.06277 0.350615 -0.861272
2010-05-18 09:47:57 51°40.716 2°46.993 19.8083 0.06277 0.350697 -0.861272
2010-05-18 09:48:57 51°40.483 2°46.856 19.8142 0.06277 0.350737 -0.861272
2010-05-18 09:49:57 51°40.25 2°46.716 19.8159 0.06277 0.350801 -0.826448
2010-05-18 09:50:57 51°40.046 2°46.495 19.8253 0.06277 0.350865 -0.826448
2010-05-18 09:51:57 51°39.92 2°46.161 19.8239 0.06277 0.350935 -0.861272
2010-05-18 09:52:57 51°39.947 2°45.792 19.8499 0.062665 0.350382 -0.826448
2010-05-18 09:53:57 51°40.022 2°45.441 19.8601 0.062665 0.35044 -0.861272
2010-05-18 09:54:57 51°40.102 2°45.091 19.8743 0.062665 0.350498 -0.861272
2010-05-18 09:55:57 51°40.183 2°44.743 19.8806 0.062665 0.350586 -0.861272
2010-05-18 09:56:57 51°40.262 2°44.39 19.8805 0.062665 0.350656 -0.826448
2010-05-18 09:57:57 51°40.324 2°44.025 19.8941 0.062665 0.350714 -0.861272
2010-05-18 09:58:57 51°40.387 2°43.66 19.9085 0.062665 0.350778 -0.826448
2010-05-18 09:59:57 51°40.452 2°43.293 19.9104 0.062665 0.350848 -0.826448
2010-05-18 10:00:57 51°40.519 2°42.926 19.9287 0.062665 0.350901 -0.861272
2010-05-18 10:01:57 51°40.587 2°42.56 19.9352 0.062665 0.350988 -0.861272
2010-05-18 10:02:57 51°40.655 2°42.192 19.9441 0.062561 0.350446 -0.861272
2010-05-18 10:03:57 51°40.725 2°41.824 19.9411 0.062561 0.350522 -0.861272
2010-05-18 10:04:57 51°40.794 2°41.455 19.9468 0.062561 0.35058 -0.896096
2010-05-18 10:05:57 51°40.864 2°41.086 19.9704 0.062561 0.350633 -0.861272
2010-05-18 10:06:57 51°40.933 2°40.718 19.9879 0.062561 0.350714 -0.826448
2010-05-18 10:07:57 51°41.002 2°40.351 19.9778 0.062561 0.350773 -0.826448
2010-05-18 10:08:57 51°41.068 2°39.982 19.977 0.062561 0.350843 -0.861272
2010-05-18 10:09:57 51°41.136 2°39.616 19.9925 0.062561 0.350896 -0.826448
2010-05-18 10:10:57 51°41.202 2°39.252 20.0053 0.062561 0.350972 -0.861272
2010-05-18 10:11:57 51°41.268 2°38.891 19.9865 0.062561 0.351036 -0.826448
2010-05-18 10:12:57 51°41.332 2°38.531 20.0143 0.062561 0.351095 -0.861272
2010-05-18 10:13:57 51°41.397 2°38.168 20.0175 0.062457 0.350545 -0.826448
2010-05-18 10:14:57 51°41.462 2°37.805 20.0747 0.062457 0.350615 -0.826448
2010-05-18 10:15:57 51°41.472 2°37.421 20.0506 0.062457 0.350668 -0.896096
2010-05-18 10:16:57 51°41.354 2°37.097 20.0586 0.062457 0.350744 -0.861272
2010-05-18 10:17:57 51°41.116 2°37.032 20.0327 0.062457 0.350733 -0.826448
2010-05-18 10:18:57 51°40.876 2°36.903 20.0504 0.062457 0.350844 -0.826448
2010-05-18 10:19:57 51°40.635 2°36.774 20.058 0.062457 0.350908 -0.861272
2010-05-18 10:20:57 51°40.392 2°36.656 20.0489 0.062457 0.350955 -0.896096
2010-05-18 10:21:57 51°40.148 2°36.54 20.0824 0.062457 0.351026 -0.861272
2010-05-18 10:22:57 51°39.904 2°36.425 20.0837 0.062457 0.35109 -0.791624
2010-05-18 10:23:57 51°39.661 2°36.309 20.0963 0.062457 0.351143 -0.826448
2010-05-18 10:24:57 51°39.417 2°36.192 20.1008 0.062457 0.351208 -0.861272
2010-05-18 10:25:57 51°39.173 2°36.076 20.1146 0.062353 0.350657 -0.826448
2010-05-18 10:26:57 51°38.928 2°35.958 20.1004 0.062353 0.350722 -0.861272
2010-05-18 10:27:57 51°38.684 2°35.826 20.1347 0.062353 0.350769 -0.861272
2010-05-18 10:28:57 51°38.44 2°35.699 20.1356 0.062353 0.350834 -0.861272
2010-05-18 10:29:57 51°38.197 2°35.571 20.1408 0.062353 0.350892 -0.826448
2010-05-18 10:30:57 51°37.955 2°35.447 20.1718 0.062353 0.350963 -0.861272
2010-05-18 10:31:57 51°37.713 2°35.324 20.184 0.062353 0.351022 -0.861272
2010-05-18 10:34:26 51°37.102 2°35.084 20.1793 0.062353 0.351187 -0.896096
2010-05-18 10:36:50 51°36.511 2°34.881 20.1604 0.062249 0.350753 -0.861272
2010-05-18 10:37:50 51°36.264 2°34.809 20.215 0.062249 0.350823 -0.826448
2010-05-18 10:38:50 51°36.018 2°34.729 20.1958 0.062249 0.350853 -0.826448
2010-05-18 10:39:51 51°35.767 2°34.649 20.2263 0.062249 0.350947 -0.861272
2010-05-18 10:40:50 51°35.524 2°34.571 20.2159 0.062249 0.351012 -0.861272
2010-05-18 10:41:50 51°35.277 2°34.491 20.2415 0.062249 0.351065 -0.861272
2010-05-18 10:42:50 51°35.028 2°34.41 20.2578 0.062249 0.351136 -0.861272
2010-05-18 10:43:50 51°34.779 2°34.325 20.2691 0.062249 0.351207 -0.826448
2010-05-18 10:44:50 51°34.532 2°34.237 20.2856 0.062249 0.351266 -0.861272
2010-05-18 10:45:50 51°34.285 2°34.149 20.2805 0.062249 0.351337 -0.826448
2010-05-18 10:46:50 51°34.039 2°34.063 20.31 0.062145 0.350778 -0.826448
2010-05-18 10:47:51 51°33.788 2°33.981 20.2963 0.062145 0.350855 -0.861272
2010-05-18 10:48:50 51°33.544 2°33.905 20.3274 0.062145 0.350914 -0.826448
2010-05-18 10:49:51 51°33.292 2°33.825 20.28 0.062145 0.350973 -0.861272
2010-05-18 10:50:50 51°33.052 2°33.752 20.3094 0.062145 0.351008 -0.861272
2010-05-18 10:51:51 51°32.803 2°33.677 20.3407 0.062145 0.351079 -0.826448
2010-05-18 10:52:50 51°32.563 2°33.604 20.3404 0.062145 0.351144 -0.861272
2010-05-18 10:53:50 51°32.319 2°33.529 20.3355 0.062145 0.351215 -0.861272
2010-05-18 10:54:50 51°32.075 2°33.455 20.3113 0.062145 0.351245 -0.861272
2010-05-18 10:55:50 51°31.832 2°33.38 20.3554 0.062145 0.351316 -0.861272
2010-05-18 10:56:51 51°31.585 2°33.3 20.3591 0.062145 0.351357 -0.826448
2010-05-18 10:57:50 51°31.347 2°33.224 20.3692 0.062041 0.350798 -0.861272
2010-05-18 10:58:51 51°31.1 2°33.143 20.4009 0.062041 0.350863 -0.826448
2010-05-18 10:59:50 51°30.863 2°33.068 20.3792 0.062041 0.350904 -0.826448
2010-05-18 11:00:50 51°30.621 2°32.988 20.4057 0.062041 0.350975 -0.861272
2010-05-18 11:01:51 51°30.376 2°32.927 20.4233 0.062041 0.351029 -0.861272
2010-05-18 11:02:50 51°30.156 2°33.02 20.4037 0.062041 0.351041 -0.861272
2010-05-18 11:03:51 51°29.98 2°33.248 20.37 0.062041 0.351088 -0.826448
2010-05-18 11:04:50 51°29.811 2°33.471 20.3953 0.062041 0.351135 -0.861272
2010-05-18 11:05:50 51°29.622 2°33.666 20.4059 0.062041 0.351189 -0.826448
2010-05-18 11:06:50 51°29.472 2°33.905 20.384 0.062041 0.351224 -0.826448
2010-05-18 11:07:50 51°29.375 2°34.21 20.3838 0.062041 0.351278 -0.861272
2010-05-18 11:08:50 51°29.289 2°34.517 20.4201 0.061937 0.350735 -0.826448
2010-05-18 11:09:50 51°29.274 2°34.838 20.4129 0.061937 0.350729 -0.826448
2010-05-18 11:10:50 51°29.269 2°35.16 20.4096 0.061937 0.350783 -0.896096
2010-05-18 11:11:51 51°29.269 2°35.487 20.4033 0.061937 0.350848 -0.861272
2010-05-18 11:12:51 51°29.356 2°35.763 20.4297 0.061937 0.350937 -0.826448
2010-05-18 11:13:50 51°29.53 2°35.884 20.4084 0.061937 0.350907 -0.826448
2010-05-18 11:14:51 51°29.732 2°35.938 20.4252 0.061937 0.350943 -0.826448
2010-05-18 11:15:50 51°29.929 2°35.989 20.4342 0.061937 0.351008 -0.826448
2010-05-18 11:16:50 51°30.126 2°36.062 20.4299 0.061937 0.351044 -0.861272
2010-05-18 11:17:50 51°30.32 2°36.149 20.4557 0.061937 0.351097 -0.791624
2010-05-18 11:18:51 51°30.517 2°36.237 20.4601 0.061937 0.351139 -0.861272
2010-05-18 11:19:50 51°30.707 2°36.323 20.4646 0.061833 0.350578 -0.826448
2010-05-18 11:20:50 51°30.901 2°36.41 20.4749 0.061833 0.350631 -0.826448
2010-05-18 11:21:50 51°31.093 2°36.448 20.5158 0.061833 0.35072 -0.861272
2010-05-18 11:22:50 51°31.181 2°36.167 20.4614 0.061833 0.350696 -0.861272
2010-05-18 11:23:50 51°31.185 2°35.899 20.489 0.061833 0.350762 -0.826448
2010-05-18 11:24:50 51°31.179 2°35.679 20.5021 0.061833 0.350815 -0.861272
2010-05-18 11:25:50 51°31.167 2°35.479 20.5163 0.061833 0.350869 -0.861272
2010-05-18 11:26:50 51°31.121 2°35.325 20.5327 0.061833 0.350916 -0.861272
2010-05-18 11:27:51 51°31.041 2°35.243 20.5239 0.061833 0.350934 -0.861272
2010-05-18 11:28:51 51°30.955 2°35.206 20.5336 0.061833 0.350964 -0.826448
2010-05-18 11:29:50 51°30.868 2°35.186 20.5345 0.061833 0.351011 -0.861272
2010-05-18 11:30:50 51°30.779 2°35.18 20.5642 0.061729 0.350444 -0.861272
2010-05-18 11:31:50 51°30.693 2°35.188 20.5727 0.061729 0.350479 -0.861272
2010-05-18 11:32:51 51°30.61 2°35.206 20.5567 0.061729 0.350503 -0.861272
2010-05-18 11:33:50 51°30.535 2°35.167 20.5787 0.061729 0.350557 -0.826448
2010-05-18 11:34:50 51°30.483 2°35.078 20.5896 0.061729 0.35058 -0.861272
2010-05-18 11:35:50 51°30.464 2°34.972 20.6104 0.061729 0.350592 -0.861272
2010-05-18 11:38:02 51°30.571 2°34.971 20.6146 0.061729 0.350658 -0.861272
2010-05-18 11:39:54 51°30.844 2°35.312 20.5758 0.061729 0.350699 -0.791624
2010-05-18 11:40:55 51°31.002 2°35.5 20.5905 0.061729 0.350705 -0.861272
2010-05-18 11:41:55 51°31.158 2°35.687 20.6215 0.061729 0.350753 -0.826448
2010-05-18 11:42:55 51°31.313 2°35.878 20.6071 0.061625 0.350167 -0.861272
2010-05-18 11:43:54 51°31.467 2°36.064 20.6318 0.061625 0.350197 -0.826448
2010-05-18 11:44:55 51°31.626 2°36.257 20.6205 0.061625 0.350232 -0.861272
2010-05-18 11:45:55 51°31.784 2°36.451 20.6321 0.061625 0.35025 -0.826448
2010-05-18 11:46:54 51°31.94 2°36.639 20.6249 0.061625 0.350286 -0.826448
2010-05-18 11:47:55 51°32.1 2°36.831 20.6491 0.061625 0.350316 -0.826448
2010-05-18 11:48:55 51°32.257 2°37.023 20.66 0.061625 0.350339 -0.861272
2010-05-18 11:49:54 51°32.411 2°37.213 20.6643 0.061625 0.350369 -0.826448
2010-05-18 11:50:54 51°32.582 2°37.371 20.6474 0.061625 0.350393 -0.826448
2010-05-18 11:51:55 51°32.767 2°37.508 20.6749 0.061625 0.350429 -0.861272
2010-05-18 11:52:54 51°32.946 2°37.643 20.6676 0.061625 0.350452 -0.826448
2010-05-18 11:53:54 51°33.127 2°37.781 20.6777 0.061625 0.350476 -0.861272
2010-05-18 11:54:54 51°33.307 2°37.921 20.6952 0.061625 0.3505 -0.861272
2010-05-18 11:55:54 51°33.488 2°38.061 20.6623 0.061625 0.350524 -0.826448
2010-05-18 11:56:55 51°33.675 2°38.205 20.6841 0.061521 0.349943 -0.826448
2010-05-18 11:57:54 51°33.854 2°38.346 20.6818 0.061521 0.349973 -0.861272
2010-05-18 11:58:55 51°34.039 2°38.491 20.6792 0.061521 0.349997 -0.861272
2010-05-18 11:59:54 51°34.22 2°38.632 20.7028 0.061521 0.35002 -0.826448
2010-05-18 12:00:54 51°34.404 2°38.774 20.7172 0.061521 0.350062 -0.826448
2010-05-18 12:01:54 51°34.588 2°38.918 20.7166 0.061521 0.350086 -0.826448
2010-05-18 12:02:54 51°34.773 2°39.062 20.7336 0.061521 0.350116 -0.861272
2010-05-18 12:03:54 51°34.97 2°39.158 20.7217 0.061521 0.35014 -0.826448
2010-05-18 12:04:54 51°35.17 2°39.237 20.7134 0.061521 0.350163 -0.826448
2010-05-18 12:05:55 51°35.372 2°39.319 20.7255 0.061521 0.350193 -0.861272
2010-05-18 12:06:54 51°35.569 2°39.402 20.6576 0.061521 0.350223 -0.826448
2010-05-18 12:07:54 51°35.683 2°39.655 20.6986 0.061521 0.350241 -0.826448
2010-05-18 12:08:54 51°35.644 2°39.978 20.7236 0.061521 0.350265 -0.826448
2010-05-18 12:09:54 51°35.483 2°40.222 20.7013 0.061521 0.3503 -0.826448
2010-05-18 12:10:54 51°35.283 2°40.408 20.7419 0.061417 0.349707 -0.896096
2010-05-18 12:11:54 51°35.067 2°40.552 20.7307 0.061417 0.349731 -0.861272
2010-05-18 12:12:54 51°34.842 2°40.68 20.7695 0.061417 0.349755 -0.861272
2010-05-18 12:13:54 51°34.612 2°40.805 20.7373 0.061417 0.349785 -0.896096
2010-05-18 12:14:55 51°34.38 2°40.932 20.7741 0.061417 0.34982 -0.861272
2010-05-18 12:15:54 51°34.155 2°41.051 20.7592 0.061417 0.34985 -0.861272
2010-05-18 12:16:54 51°33.911 2°41.091 20.7705 0.061417 0.349898 -0.861272
2010-05-18 12:17:54 51°33.663 2°41.114 20.7815 0.061417 0.349916 -0.861272
2010-05-18 12:18:54 51°33.413 2°41.14 20.8145 0.061417 0.349957 -0.826448
2010-05-18 12:19:54 51°33.165 2°41.166 20.8034 0.061417 0.349993 -0.896096
2010-05-18 12:20:54 51°32.918 2°41.198 20.8224 0.061417 0.350011 -0.896096
2010-05-18 12:21:54 51°32.674 2°41.235 20.8074 0.061417 0.350059 -0.861272
2010-05-18 12:22:54 51°32.429 2°41.271 20.804 0.061417 0.350095 -0.861272
2010-05-18 12:23:54 51°32.186 2°41.305 20.8095 0.061417 0.350118 -0.861272
2010-05-18 12:24:54 51°31.943 2°41.343 20.8198 0.061417 0.350136 -0.826448
2010-05-18 12:25:54 51°31.698 2°41.377 20.8409 0.061417 0.350184 -0.861272
2010-05-18 12:26:54 51°31.456 2°41.414 20.7776 0.061313 0.349632 -0.861272
2010-05-18 12:27:54 51°31.216 2°41.451 20.8542 0.061313 0.34965 -0.826448
2010-05-18 12:28:54 51°30.978 2°41.492 20.8469 0.061313 0.349667 -0.861272
2010-05-18 12:29:55 51°30.735 2°41.532 20.901 0.061313 0.349727 -0.861272
2010-05-18 12:30:54 51°30.501 2°41.574 20.8599 0.061313 0.349745 -0.861272
2010-05-18 12:31:54 51°30.261 2°41.605 20.8512 0.061313 0.349763 -0.896096
2010-05-18 12:32:54 51°30.02 2°41.638 20.8744 0.061313 0.349793 -0.861272
2010-05-18 12:33:54 51°29.78 2°41.673 20.8662 0.061313 0.349847 -0.791624
2010-05-18 12:34:55 51°29.536 2°41.708 20.8829 0.061313 0.349858 -0.826448
2010-05-18 12:35:54 51°29.298 2°41.742 20.881 0.061313 0.3499 -0.826448
2010-05-18 12:36:54 51°29.056 2°41.775 20.9076 0.061313 0.349924 -0.861272
2010-05-18 12:37:54 51°28.815 2°41.811 20.9072 0.061313 0.349948 -0.826448
2010-05-18 12:38:54 51°28.574 2°41.845 20.891 0.061313 0.349972 -0.861272
2010-05-18 12:40:27 51°28.202 2°41.898 20.9331 0.061313 0.350014 -0.826448
2010-05-18 12:42:45 51°27.649 2°41.981 20.8921 0.061313 0.350068 -0.826448
2010-05-18 12:43:45 51°27.411 2°42.017 20.942 0.061313 0.350086 -0.861272
2010-05-18 12:44:45 51°27.173 2°42.054 20.963 0.061209 0.349497 -0.791624
2010-05-18 12:45:45 51°26.936 2°42.089 20.9521 0.061209 0.349497 -0.861272
2010-05-18 12:46:44 51°26.706 2°42.111 20.9474 0.061209 0.349509 -0.826448
2010-05-18 12:47:45 51°26.469 2°42.135 20.9443 0.061209 0.349544 -0.826448
2010-05-18 12:48:45 51°26.237 2°42.16 20.9223 0.061209 0.349544 -0.861272
2010-05-18 12:49:45 51°26.015 2°42.255 20.9282 0.061209 0.349598 -0.861272
2010-05-18 12:50:44 51°25.807 2°42.392 20.9648 0.061209 0.349592 -0.826448
2010-05-18 12:51:45 51°25.591 2°42.533 20.9569 0.061209 0.349604 -0.861272
2010-05-18 12:52:45 51°25.375 2°42.671 20.9559 0.061209 0.349616 -0.826448
2010-05-18 12:53:45 51°25.158 2°42.809 20.9677 0.061209 0.349652 -0.861272
2010-05-18 12:54:45 51°24.94 2°42.95 20.984 0.061209 0.349652 -0.826448
2010-05-18 12:55:45 51°24.726 2°43.107 20.969 0.061209 0.34967 -0.861272
2010-05-18 12:56:45 51°24.516 2°43.265 21.0011 0.061209 0.349694 -0.861272
2010-05-18 12:57:45 51°24.308 2°43.417 20.9702 0.061209 0.349688 -0.861272
2010-05-18 12:58:45 51°24.103 2°43.563 20.9941 0.061209 0.349706 -0.826448
2010-05-18 12:59:45 51°23.898 2°43.711 21.0397 0.061209 0.34973 -0.826448
2010-05-18 13:00:45 51°23.691 2°43.859 21.0229 0.061209 0.34973 -0.861272
2010-05-18 13:01:44 51°23.488 2°44.003 21.0256 0.061209 0.349748 -0.861272
2010-05-18 13:02:45 51°23.278 2°44.157 21.047 0.061209 0.349766 -0.861272
2010-05-18 13:03:45 51°23.071 2°44.312 21.0104 0.061209 0.349754 -0.861272
2010-05-18 13:04:45 51°22.862 2°44.466 21.0379 0.061209 0.349783 -0.826448
2010-05-18 13:05:45 51°22.652 2°44.62 20.9953 0.061209 0.349789 -0.826448
2010-05-18 13:06:45 51°22.462 2°44.819 20.9647 0.061209 0.349807 -0.861272
2010-05-18 13:07:45 51°22.298 2°45.068 21.047 0.061209 0.349783 -0.861272
2010-05-18 13:08:45 51°22.134 2°45.322 21.0184 0.061209 0.349849 -0.861272
2010-05-18 13:09:45 51°21.966 2°45.576 21.0569 0.061209 0.349891 -0.826448
2010-05-18 13:10:44 51°21.8 2°45.827 21.0518 0.061209 0.349903 -0.826448
2010-05-18 13:11:45 51°21.63 2°46.086 21.064 0.061209 0.349909 -0.861272
2010-05-18 13:12:45 51°21.461 2°46.342 21.069 0.061209 0.349909 -0.861272
2010-05-18 13:13:44 51°21.297 2°46.595 21.0702 0.061209 0.349921 -0.826448
2010-05-18 13:14:45 51°21.127 2°46.855 21.1078 0.061209 0.349939 -0.791624
2010-05-18 13:15:45 51°20.961 2°47.11 21.0345 0.061209 0.349933 -0.861272
2010-05-18 13:16:45 51°20.796 2°47.365 21.0868 0.061209 0.349951 -0.826448
2010-05-18 13:17:45 51°20.629 2°47.616 21.1388 0.061209 0.349975 -0.826448
2010-05-18 13:18:45 51°20.463 2°47.862 21.0609 0.061209 0.349969 -0.826448
2010-05-18 13:19:45 51°20.298 2°48.107 21.0727 0.061209 0.349981 -0.826448
2010-05-18 13:20:45 51°20.134 2°48.35 21.1097 0.061209 0.350017 -0.861272
2010-05-18 13:21:45 51°19.969 2°48.599 21.116 0.061209 0.350011 -0.826448
2010-05-18 13:22:45 51°19.805 2°48.848 21.0996 0.061209 0.349993 -0.826448
2010-05-18 13:23:45 51°19.641 2°49.1 21.1287 0.061209 0.350011 -0.861272
2010-05-18 13:24:45 51°19.476 2°49.356 21.1237 0.061209 0.350035 -0.861272
2010-05-18 13:25:45 51°19.31 2°49.611 21.1467 0.061105 0.349427 -0.861272
2010-05-18 13:26:45 51°19.145 2°49.87 21.1484 0.061209 0.350029 -0.826448
2010-05-18 13:27:45 51°18.982 2°50.136 21.158 0.061209 0.350065 -0.896096
2010-05-18 13:28:45 51°18.817 2°50.399 21.1371 0.061209 0.350065 -0.861272
2010-05-18 13:29:45 51°18.641 2°50.635 21.1853 0.061209 0.350083 -0.861272
2010-05-18 13:30:45 51°18.455 2°50.853 21.1679 0.061105 0.349493 -0.861272
2010-05-18 13:31:45 51°18.271 2°51.077 21.1917 0.061105 0.349493 -0.861272
2010-05-18 13:32:45 51°18.087 2°51.301 21.2094 0.061105 0.349511 -0.861272
2010-05-18 13:33:45 51°17.898 2°51.513 21.179 0.061105 0.349523 -0.826448
2010-05-18 13:34:45 51°17.706 2°51.723 21.1851 0.061105 0.349535 -0.861272
2010-05-18 13:35:44 51°17.512 2°51.911 21.2078 0.061209 0.350155 -0.896096
2010-05-18 13:36:45 51°17.309 2°52.103 21.2462 0.061105 0.349559 -0.861272
2010-05-18 13:37:44 51°17.117 2°52.293 21.2462 0.061105 0.349559 -0.861272
2010-05-18 13:38:45 51°16.918 2°52.49 21.2599 0.061105 0.349571 -0.896096
2010-05-18 13:39:45 51°16.719 2°52.673 21.2221 0.061105 0.349583 -0.896096
2010-05-18 13:40:45 51°16.517 2°52.857 21.2431 0.061105 0.349589 -0.861272
2010-05-18 13:41:45 51°16.314 2°53.032 21.28 0.061105 0.349601 -0.826448
2010-05-18 13:45:48 51°15.502 2°53.745 21.3056 0.061105 0.349655 -0.861272
2010-05-18 13:46:47 51°15.32 2°53.954 21.3199 0.061105 0.349679 -0.861272
2010-05-18 13:47:48 51°15.144 2°54.194 21.3352 0.061105 0.34969 -0.826448
2010-05-18 13:48:48 51°14.979 2°54.447 21.3157 0.061105 0.349708 -0.861272
2010-05-18 13:49:48 51°14.816 2°54.694 21.2887 0.061105 0.349732 -0.861272
2010-05-18 13:50:48 51°14.636 2°54.916 21.3705 0.061105 0.349732 -0.861272
2010-05-18 13:51:47 51°14.459 2°55.122 21.2726 0.061105 0.349768 -0.861272
2010-05-18 13:52:48 51°14.312 2°55.262 21.3971 0.061105 0.349786 -0.861272
2010-05-18 13:53:47 51°14.215 2°55.355 21.4154 0.061105 0.349804 -0.896096
2010-05-18 13:54:48 51°14.127 2°55.427 21.4186 0.061105 0.349846 -0.896096
2010-05-18 13:55:48 51°14.046 2°55.486 21.4296 0.061105 0.349858 -0.861272
2010-05-18 13:56:48 51°13.954 2°55.541 21.4444 0.061105 0.349882 -0.826448
2010-05-18 13:57:47 51°13.859 2°55.61 21.4536 0.061105 0.349894 -0.861272
2010-05-18 13:58:51 51°13.771 2°55.688 21.4928 0.061105 0.349918 -0.861272
2010-05-18 13:59:51 51°13.726 2°55.772 21.4986 0.061105 0.349918 -0.861272
2010-05-18 14:00:52 51°13.687 2°55.861 21.4938 0.061105 0.349936 -0.826448
2010-05-18 14:01:51 51°13.665 2°55.941 21.5029 0.061105 0.349948 -0.861272